createdAt,value
2019-01-29T00:01:28.971Z,97228.86
2019-01-29T00:04:33.709Z,97235.42
2019-01-29T00:07:38.139Z,97234.05
2019-01-29T00:10:42.851Z,97241.56
2019-01-29T00:13:47.282Z,97236.59
2019-01-29T00:16:52.008Z,97235.06
2019-01-29T00:19:56.435Z,97238.36
2019-01-29T00:23:00.866Z,97238.31
2019-01-29T00:26:05.311Z,97242.84
2019-01-29T00:29:09.722Z,97239.28
2019-01-29T00:32:14.154Z,97240.55
2019-01-29T00:35:18.584Z,97247.99
2019-01-29T00:38:23.278Z,97249.41
2019-01-29T00:41:27.715Z,97247.23
2019-01-29T00:44:32.139Z,97264.98
2019-01-29T00:47:36.568Z,97265.58
2019-01-29T00:50:41.277Z,97263.39
2019-01-29T00:53:45.709Z,97267.22
2019-01-29T00:56:50.436Z,97267.77
2019-01-29T00:59:54.870Z,97269.05
2019-01-29T01:02:59.588Z,97269.96
2019-01-29T01:06:04.090Z,97266.66
2019-01-29T01:09:09.397Z,97272.91
2019-01-29T01:12:13.831Z,97276.40
2019-01-29T01:15:19.130Z,97285.36
2019-01-29T01:18:23.575Z,97288.20
2019-01-29T01:21:28.279Z,97289.34
2019-01-29T01:24:32.717Z,97285.58
2019-01-29T01:27:37.435Z,97291.36
2019-01-29T01:30:42.162Z,97299.61
2019-01-29T01:33:46.663Z,97297.59
2019-01-29T01:36:51.088Z,97305.02
2019-01-29T01:39:55.524Z,97307.00
2019-01-29T01:43:00.375Z,97312.63
2019-01-29T01:46:04.869Z,97316.29
2019-01-29T01:49:09.305Z,97308.51
2019-01-29T01:52:13.741Z,97309.07
2019-01-29T01:55:19.188Z,97315.54
2019-01-29T01:58:23.623Z,97315.75
2019-01-29T02:01:28.365Z,97325.83
2019-01-29T02:04:32.784Z,97327.30
2019-01-29T02:07:37.220Z,97337.05
2019-01-29T02:10:41.649Z,97334.16
2019-01-29T02:13:46.349Z,97338.02
2019-01-29T02:16:50.842Z,97339.05
2019-01-29T02:19:55.286Z,97344.23
2019-01-29T02:23:07.529Z,97342.98
2019-01-29T02:26:05.954Z,97341.55
2019-01-29T02:29:10.716Z,97342.83
2019-01-29T02:32:15.154Z,97349.31
2019-01-29T02:35:19.692Z,97342.81
2019-01-29T02:38:24.399Z,97344.69
2019-01-29T02:41:28.830Z,97344.02
2019-01-29T02:44:33.268Z,97350.61
2019-01-29T02:47:37.976Z,97344.80
2019-01-29T02:50:42.705Z,97342.15
2019-01-29T02:53:47.437Z,97345.91
2019-01-29T02:56:52.171Z,97343.98
2019-01-29T02:59:56.602Z,97352.13
2019-01-29T03:03:01.034Z,97343.38
2019-01-29T03:06:06.295Z,97338.59
2019-01-29T03:09:10.734Z,97344.48
2019-01-29T03:12:15.160Z,97342.72
2019-01-29T03:15:26.867Z,97343.10
2019-01-29T03:18:31.642Z,97340.52
2019-01-29T03:21:36.374Z,97345.19
2019-01-29T03:24:40.809Z,97348.28
2019-01-29T03:27:45.518Z,97352.91
2019-01-29T03:30:50.258Z,97357.91
2019-01-29T03:33:54.691Z,97365.47
2019-01-29T03:36:59.112Z,97372.34
2019-01-29T03:40:05.571Z,97370.09
2019-01-29T03:43:10.294Z,97371.03
2019-01-29T03:46:14.722Z,97373.69
2019-01-29T03:49:19.161Z,97383.08
2019-01-29T03:52:23.878Z,97381.95
2019-01-29T03:55:28.339Z,97389.47
2019-01-29T03:58:32.768Z,97384.20
2019-01-29T04:01:37.453Z,97389.17
2019-01-29T04:04:41.891Z,97394.98
2019-01-29T04:07:46.823Z,97396.46
2019-01-29T04:10:51.543Z,97396.73
2019-01-29T04:13:56.294Z,97397.08
2019-01-29T04:17:00.704Z,97395.65
2019-01-29T04:20:09.580Z,97393.82
2019-01-29T04:23:14.359Z,97397.11
2019-01-29T04:26:18.788Z,97401.87
2019-01-29T04:29:23.230Z,97402.63
2019-01-29T04:32:27.659Z,97409.14
2019-01-29T04:35:32.090Z,97405.09
2019-01-29T04:38:36.528Z,97410.55
2019-01-29T04:41:40.957Z,97409.59
2019-01-29T04:44:45.389Z,97409.09
2019-01-29T04:47:50.161Z,97409.86
2019-01-29T04:50:54.597Z,97410.34
2019-01-29T04:53:59.037Z,97409.63
2019-01-29T04:57:03.460Z,97406.45
2019-01-29T05:00:12.341Z,97414.05
2019-01-29T05:03:16.842Z,97426.59
2019-01-29T05:06:21.279Z,97421.42
2019-01-29T05:09:25.716Z,97419.16
2019-01-29T05:12:30.480Z,97425.44
2019-01-29T05:15:35.190Z,97422.38
2019-01-29T05:18:39.619Z,97431.19
2019-01-29T05:21:44.059Z,97429.95
2019-01-29T05:24:48.497Z,97434.88
2019-01-29T05:27:53.193Z,97434.78
2019-01-29T05:30:57.928Z,97440.02
2019-01-29T05:34:02.359Z,97441.65
2019-01-29T05:37:07.072Z,97446.84
2019-01-29T05:40:15.651Z,97451.23
2019-01-29T05:43:20.143Z,97454.63
2019-01-29T05:46:25.288Z,97463.21
2019-01-29T05:49:29.998Z,97464.86
2019-01-29T05:52:34.422Z,97474.59
2019-01-29T05:55:40.868Z,97468.29
2019-01-29T05:58:45.024Z,97472.70
2019-01-29T06:01:49.467Z,97469.97
2019-01-29T06:04:53.898Z,97466.91
2019-01-29T06:07:58.585Z,97464.89
2019-01-29T06:11:03.310Z,97470.05
2019-01-29T06:14:08.148Z,97476.71
2019-01-29T06:17:12.585Z,97471.50
2019-01-29T06:20:20.888Z,97469.53
2019-01-29T06:23:25.619Z,97470.98
2019-01-29T06:26:30.343Z,97464.70
2019-01-29T06:29:34.772Z,97462.36
2019-01-29T06:32:39.505Z,97466.27
2019-01-29T06:35:44.228Z,97461.50
2019-01-29T06:38:48.658Z,97466.22
2019-01-29T06:41:53.094Z,97467.67
2019-01-29T06:44:57.530Z,97471.55
2019-01-29T06:48:02.235Z,97468.61
2019-01-29T06:51:06.960Z,97467.34
2019-01-29T06:54:11.406Z,97462.82
2019-01-29T06:57:16.216Z,97473.02
2019-01-29T07:00:27.572Z,97469.24
2019-01-29T07:03:32.355Z,97471.56
2019-01-29T07:06:36.798Z,97484.80
2019-01-29T07:09:41.226Z,97484.64
2019-01-29T07:12:45.912Z,97485.11
2019-01-29T07:16:00.589Z,97492.28
2019-01-29T07:19:06.733Z,97495.88
2019-01-29T07:22:11.479Z,97485.56
2019-01-29T07:25:15.895Z,97494.53
2019-01-29T07:28:20.625Z,97496.04
2019-01-29T07:31:25.352Z,97502.52
2019-01-29T07:34:30.085Z,97500.77
2019-01-29T07:37:34.817Z,97499.63
2019-01-29T07:40:39.246Z,97509.00
2019-01-29T07:43:43.683Z,97500.92
2019-01-29T07:46:48.121Z,97499.76
2019-01-29T07:49:52.552Z,97501.45
2019-01-29T07:52:57.244Z,97497.14
2019-01-29T07:56:01.992Z,97495.69
2019-01-29T07:59:06.430Z,97493.20
2019-01-29T08:02:11.137Z,97491.32
2019-01-29T08:05:15.965Z,97492.20
2019-01-29T08:08:20.397Z,97495.63
2019-01-29T08:11:24.821Z,97496.69
2019-01-29T08:14:29.264Z,97498.23
2019-01-29T08:17:33.962Z,97500.57
2019-01-29T08:20:39.346Z,97496.19
2019-01-29T08:23:43.782Z,97498.91
2019-01-29T08:26:48.565Z,97492.17
2019-01-29T08:29:52.988Z,97494.39
2019-01-29T08:32:57.417Z,97495.02
2019-01-29T08:36:02.145Z,97491.55
2019-01-29T08:39:08.586Z,97490.58
2019-01-29T08:42:13.016Z,97489.15
2019-01-29T08:45:19.490Z,97496.75
2019-01-29T08:48:23.930Z,97492.22
2019-01-29T08:51:28.353Z,97487.55
2019-01-29T08:54:32.790Z,97493.44
2019-01-29T08:57:37.221Z,97494.50
2019-01-29T09:00:41.646Z,97496.30
2019-01-29T09:03:46.082Z,97501.03
2019-01-29T09:06:50.788Z,97500.48
2019-01-29T09:09:55.217Z,97495.72
2019-01-29T09:12:59.703Z,97488.50
2019-01-29T09:16:04.461Z,97492.63
2019-01-29T09:19:08.893Z,97489.82
2019-01-29T09:22:13.352Z,97487.06
2019-01-29T09:25:21.007Z,97483.82
2019-01-29T09:28:24.440Z,97479.03
2019-01-29T09:31:29.136Z,97471.08
2019-01-29T09:34:33.882Z,97476.73
2019-01-29T09:37:38.782Z,97479.36
2019-01-29T09:40:43.543Z,97476.11
2019-01-29T09:43:48.267Z,97469.92
2019-01-29T09:46:52.697Z,97467.70
2019-01-29T09:49:57.135Z,97464.44
2019-01-29T09:53:01.842Z,97460.03
2019-01-29T09:56:06.279Z,97453.31
2019-01-29T09:59:10.999Z,97454.52
2019-01-29T10:02:15.732Z,97455.42
2019-01-29T10:05:20.232Z,97445.23
2019-01-29T10:08:25.001Z,97445.31
2019-01-29T10:11:29.496Z,97442.99
2019-01-29T10:14:34.243Z,97434.78
2019-01-29T10:17:39.040Z,97437.18
2019-01-29T10:20:43.814Z,97434.64
2019-01-29T10:23:48.540Z,97428.43
2019-01-29T10:26:52.971Z,97424.48
2019-01-29T10:29:57.691Z,97408.00
2019-01-29T10:33:02.422Z,97401.32
2019-01-29T10:36:06.869Z,97389.41
2019-01-29T10:39:11.592Z,97383.16
2019-01-29T10:42:16.308Z,97379.19
2019-01-29T10:45:22.863Z,97377.17
2019-01-29T10:48:27.304Z,97374.16
2019-01-29T10:51:31.750Z,97368.55
2019-01-29T10:54:36.187Z,97370.83
2019-01-29T10:57:40.905Z,97369.78
2019-01-29T11:00:45.615Z,97363.37
2019-01-29T11:03:50.042Z,97364.16
2019-01-29T11:06:54.479Z,97356.00
2019-01-29T11:09:58.912Z,97350.16
2019-01-29T11:13:03.334Z,97347.25
2019-01-29T11:16:07.770Z,97342.99
2019-01-29T11:19:12.194Z,97336.07
2019-01-29T11:22:16.644Z,97336.07
2019-01-29T11:25:25.487Z,97331.29
2019-01-29T11:28:29.909Z,97326.48
2019-01-29T11:31:34.670Z,97317.17
2019-01-29T11:34:39.162Z,97314.52
2019-01-29T11:37:43.918Z,97306.27
2019-01-29T11:40:48.751Z,97305.73
2019-01-29T11:43:53.485Z,97302.55
2019-01-29T11:46:57.917Z,97292.68
2019-01-29T11:50:02.652Z,97282.75
2019-01-29T11:53:07.077Z,97274.53
2019-01-29T11:56:11.521Z,97272.45
2019-01-29T11:59:15.945Z,97273.53
2019-01-29T12:02:28.069Z,97260.72
2019-01-29T12:05:26.551Z,97260.19
2019-01-29T12:08:31.324Z,97254.88
2019-01-29T12:11:35.761Z,97251.44
2019-01-29T12:14:40.482Z,97243.75
2019-01-29T12:17:44.913Z,97242.89
2019-01-29T12:20:49.566Z,97246.35
2019-01-29T12:23:53.999Z,97232.23
2019-01-29T12:26:58.688Z,97226.66
2019-01-29T12:30:03.190Z,97228.20
2019-01-29T12:33:09.167Z,97227.91
2019-01-29T12:36:13.913Z,97215.95
2019-01-29T12:39:18.343Z,97213.31
2019-01-29T12:42:22.841Z,97204.81
2019-01-29T12:45:27.586Z,97200.05
2019-01-29T12:48:32.025Z,97193.66
2019-01-29T12:51:37.339Z,97187.55
2019-01-29T12:54:41.764Z,97187.28
2019-01-29T12:57:46.203Z,97181.20
2019-01-29T13:00:52.572Z,97171.90
2019-01-29T13:03:57.298Z,97172.42
2019-01-29T13:07:01.739Z,97171.63
2019-01-29T13:10:19.369Z,97172.14
2019-01-29T13:13:23.950Z,97162.86
2019-01-29T13:16:28.383Z,97163.63
2019-01-29T13:19:33.243Z,97153.01
2019-01-29T13:22:37.681Z,97148.47
2019-01-29T13:25:42.110Z,97144.20
2019-01-29T13:28:46.544Z,97138.89
2019-01-29T13:31:50.973Z,97130.10
2019-01-29T13:34:55.697Z,97129.84
2019-01-29T13:38:00.108Z,97117.28
2019-01-29T13:41:05.139Z,97104.19
2019-01-29T13:44:09.873Z,97104.44
2019-01-29T13:47:14.298Z,97103.98
2019-01-29T13:50:41.646Z,97096.77
2019-01-29T13:53:46.078Z,97091.67
2019-01-29T13:56:50.518Z,97086.48
2019-01-29T13:59:55.227Z,97093.08
2019-01-29T14:03:00.265Z,97089.14
2019-01-29T14:06:04.756Z,97089.15
2019-01-29T14:09:09.730Z,97086.24
2019-01-29T14:12:14.453Z,97094.27
2019-01-29T14:15:23.429Z,97082.55
2019-01-29T14:18:27.868Z,97079.65
2019-01-29T14:21:32.541Z,97078.32
2019-01-29T14:24:36.975Z,97075.65
2019-01-29T14:27:41.415Z,97072.19
2019-01-29T14:30:45.848Z,97059.41
2019-01-29T14:33:50.537Z,97054.58
2019-01-29T14:36:54.965Z,97055.78
2019-01-29T14:40:09.980Z,97050.67
2019-01-29T14:43:27.221Z,97050.17
2019-01-29T14:46:31.991Z,97044.61
2019-01-29T14:49:36.825Z,97040.69
2019-01-29T14:52:41.251Z,97040.16
2019-01-29T14:55:45.690Z,97038.06
2019-01-29T14:58:50.129Z,97034.06
2019-01-29T15:01:54.555Z,97028.25
2019-01-29T15:04:58.989Z,97022.66
2019-01-29T15:08:03.434Z,97020.02
2019-01-29T15:11:07.935Z,97015.75
2019-01-29T15:14:12.379Z,97013.16
2019-01-29T15:17:18.521Z,97004.70
2019-01-29T15:20:23.213Z,97001.22
2019-01-29T15:23:27.643Z,97000.47
2019-01-29T15:26:32.078Z,96999.13
2019-01-29T15:29:36.788Z,96987.72
2019-01-29T15:32:41.219Z,96991.70
2019-01-29T15:35:45.950Z,96985.06
2019-01-29T15:38:50.374Z,96990.37
2019-01-29T15:41:54.813Z,96986.64
2019-01-29T15:44:59.257Z,96973.36
2019-01-29T15:48:04.048Z,96973.91
2019-01-29T15:51:08.881Z,96962.22
2019-01-29T15:54:13.319Z,96959.52
2019-01-29T15:57:18.035Z,96956.04
2019-01-29T16:00:31.502Z,96953.36
2019-01-29T16:03:35.946Z,96949.58
2019-01-29T16:06:40.840Z,96941.04
2019-01-29T16:09:45.277Z,96935.73
2019-01-29T16:12:49.702Z,96933.28
2019-01-29T16:15:54.407Z,96927.96
2019-01-29T16:18:58.846Z,96923.77
2019-01-29T16:22:03.279Z,96915.56
2019-01-29T16:25:12.299Z,96916.36
2019-01-29T16:28:16.721Z,96907.56
2019-01-29T16:31:21.441Z,96899.58
2019-01-29T16:34:25.885Z,96894.23
2019-01-29T16:37:30.601Z,96892.23
2019-01-29T16:40:41.657Z,96889.73
2019-01-29T16:43:46.403Z,96883.59
2019-01-29T16:46:51.138Z,96873.50
2019-01-29T16:49:55.868Z,96875.59
2019-01-29T16:53:01.118Z,96878.80
2019-01-29T16:56:06.349Z,96875.75
2019-01-29T16:59:10.786Z,96871.53
2019-01-29T17:02:15.621Z,96866.08
2019-01-29T17:05:20.193Z,96862.63
2019-01-29T17:08:24.966Z,96852.25
2019-01-29T17:11:29.402Z,96854.25
2019-01-29T17:14:33.835Z,96845.69
2019-01-29T17:17:38.265Z,96844.86
2019-01-29T17:20:47.009Z,96846.24
2019-01-29T17:23:51.689Z,96835.98
2019-01-29T17:26:56.130Z,96832.14
2019-01-29T17:30:00.563Z,96822.59
2019-01-29T17:33:06.229Z,96816.50
2019-01-29T17:36:10.665Z,96814.64
2019-01-29T17:39:15.096Z,96805.46
2019-01-29T17:42:19.882Z,96799.95
2019-01-29T17:45:34.277Z,96793.73
2019-01-29T17:48:38.785Z,96788.09
2019-01-29T17:51:43.481Z,96784.09
2019-01-29T17:54:48.221Z,96781.20
2019-01-29T17:57:52.659Z,96775.33
2019-01-29T18:00:58.738Z,96770.30
2019-01-29T18:04:03.437Z,96764.99
2019-01-29T18:07:07.966Z,96767.59
2019-01-29T18:10:17.092Z,96767.05
2019-01-29T18:13:21.526Z,96767.02
2019-01-29T18:16:26.248Z,96765.33
2019-01-29T18:19:30.672Z,96756.02
2019-01-29T18:22:35.183Z,96749.05
2019-01-29T18:25:39.667Z,96749.34
2019-01-29T18:28:44.364Z,96741.76
2019-01-29T18:31:48.802Z,96741.20
2019-01-29T18:34:53.570Z,96734.05
2019-01-29T18:37:58.435Z,96723.53
2019-01-29T18:41:03.167Z,96718.15
2019-01-29T18:44:07.596Z,96719.40
2019-01-29T18:47:12.550Z,96716.09
2019-01-29T18:50:20.190Z,96713.78
2019-01-29T18:53:24.630Z,96714.36
2019-01-29T18:56:29.173Z,96711.00
2019-01-29T18:59:33.905Z,96702.47
2019-01-29T19:02:38.638Z,96699.78
2019-01-29T19:05:43.068Z,96694.69
2019-01-29T19:08:47.789Z,96698.39
2019-01-29T19:11:52.524Z,96691.42
2019-01-29T19:14:57.272Z,96686.92
2019-01-29T19:18:01.714Z,96680.40
2019-01-29T19:21:06.611Z,96679.77
2019-01-29T19:24:11.096Z,96670.25
2019-01-29T19:27:15.533Z,96655.52
2019-01-29T19:30:27.376Z,96663.17
2019-01-29T19:33:31.823Z,96657.92
2019-01-29T19:36:36.277Z,96647.53
2019-01-29T19:39:40.787Z,96652.70
2019-01-29T19:42:45.221Z,96638.70
2019-01-29T19:45:49.660Z,96637.74
2019-01-29T19:48:54.234Z,96637.01
2019-01-29T19:51:58.663Z,96636.27
2019-01-29T19:55:03.101Z,96631.50
2019-01-29T19:58:09.461Z,96624.87
2019-01-29T20:01:14.031Z,96624.62
2019-01-29T20:04:18.467Z,96609.94
2019-01-29T20:07:23.239Z,96611.52
2019-01-29T20:10:27.935Z,96610.90
2019-01-29T20:13:32.670Z,96606.54
2019-01-29T20:16:37.111Z,96600.80
2019-01-29T20:19:41.825Z,96600.90
2019-01-29T20:22:46.263Z,96590.31
2019-01-29T20:25:54.493Z,96590.21
2019-01-29T20:28:59.208Z,96590.69
2019-01-29T20:32:07.358Z,96584.49
2019-01-29T20:35:12.138Z,96577.57
2019-01-29T20:38:16.971Z,96578.64
2019-01-29T20:41:21.707Z,96577.23
2019-01-29T20:44:26.175Z,96575.67
2019-01-29T20:47:30.796Z,96569.59
2019-01-29T20:50:37.339Z,96567.50
2019-01-29T20:53:41.859Z,96553.34
2019-01-29T20:56:46.329Z,96552.75
2019-01-29T20:59:51.112Z,96544.84
2019-01-29T21:02:55.853Z,96548.17
2019-01-29T21:06:00.305Z,96545.72
2019-01-29T21:09:08.580Z,96535.95
2019-01-29T21:12:13.310Z,96528.47
2019-01-29T21:15:23.531Z,96526.81
2019-01-29T21:18:27.967Z,96517.81
2019-01-29T21:21:32.720Z,96516.41
2019-01-29T21:24:37.711Z,96508.69
2019-01-29T21:27:42.797Z,96503.63
2019-01-29T21:30:48.149Z,96494.93
2019-01-29T21:33:52.574Z,96486.89
2019-01-29T21:36:57.020Z,96478.44
2019-01-29T21:40:01.474Z,96464.00
2019-01-29T21:43:05.981Z,96465.17
2019-01-29T21:46:10.775Z,96464.44
2019-01-29T21:49:15.217Z,96455.40
2019-01-29T21:52:19.660Z,96449.33
2019-01-29T21:55:24.969Z,96445.89
2019-01-29T21:58:29.415Z,96435.09
2019-01-29T22:01:34.122Z,96436.97
2019-01-29T22:04:38.856Z,96425.37
2019-01-29T22:07:43.600Z,96427.42
2019-01-29T22:10:48.312Z,96427.05
2019-01-29T22:13:53.039Z,96423.32
2019-01-29T22:16:57.782Z,96420.09
2019-01-29T22:20:02.505Z,96409.97
2019-01-29T22:23:07.346Z,96407.41
2019-01-29T22:26:12.070Z,96405.58
2019-01-29T22:29:23.184Z,96396.33
2019-01-29T22:32:22.982Z,96393.36
2019-01-29T22:35:27.905Z,96387.77
2019-01-29T22:38:32.338Z,96385.13
2019-01-29T22:41:37.090Z,96382.09
2019-01-29T22:44:41.790Z,96373.21
2019-01-29T22:47:46.740Z,96364.59
2019-01-29T22:50:51.189Z,96357.42
2019-01-29T22:53:55.624Z,96349.16
2019-01-29T22:57:00.073Z,96347.84
2019-01-29T23:00:07.712Z,96335.74
2019-01-29T23:03:12.223Z,96336.08
2019-01-29T23:06:23.864Z,96330.73
2019-01-29T23:09:28.672Z,96325.80
2019-01-29T23:12:33.507Z,96319.52
2019-01-29T23:15:37.994Z,96315.86
2019-01-29T23:18:42.457Z,96310.60
2019-01-29T23:21:47.052Z,96308.01
2019-01-29T23:24:51.525Z,96305.05
2019-01-29T23:27:55.974Z,96297.15
2019-01-29T23:31:00.422Z,96289.19
2019-01-29T23:34:05.473Z,96279.50
2019-01-29T23:37:09.987Z,96277.16
2019-01-29T23:40:17.244Z,96277.42
2019-01-29T23:43:22.010Z,96270.52
2019-01-29T23:46:26.739Z,96261.08
2019-01-29T23:49:31.175Z,96253.63
2019-01-29T23:52:35.892Z,96244.91
2019-01-29T23:55:40.624Z,96240.66
2019-01-29T23:58:45.061Z,96238.61
